Time;durP1;ratioP1;P1;durP2;ratioP2;P2;SDS_P1;SDS_P2;PMS_P1;PMS_P2;Temp;Humidity;BMP_temperature;BMP_pressure;BME280_temperature;BME280_humidity;BME280_pressure;Samples;Min_cycle;Max_cycle;Signal;HPM_P1;HPM_P2
2022/03/21 00:00:52;;;;;;;27.98;12.23;;;5.30;99.90;;;;;;6107850;23;20009;-92
2022/03/21 00:03:25;;;;;;;28.58;11.68;;;5.30;99.90;;;;;;6107557;23;20010;-93
2022/03/21 00:05:52;;;;;;;28.35;12.32;;;5.30;99.90;;;;;;6106447;23;20025;-92
2022/03/21 00:08:22;;;;;;;41.33;13.77;;;5.20;99.90;;;;;;6108112;23;20009;-90
2022/03/21 00:10:50;;;;;;;32.88;13.25;;;5.20;99.90;;;;;;6132190;23;20025;-91
2022/03/21 00:13:17;;;;;;;29.17;12.00;;;5.20;99.90;;;;;;6107301;23;20368;-92
2022/03/21 00:15:46;;;;;;;33.17;11.85;;;5.10;99.90;;;;;;6131077;23;20522;-92
2022/03/21 00:18:13;;;;;;;28.58;12.27;;;5.10;99.90;;;;;;6107766;23;20005;-91
2022/03/21 00:20:41;;;;;;;31.02;11.68;;;5.00;99.90;;;;;;6132863;23;20013;-85
2022/03/21 00:23:09;;;;;;;31.92;12.63;;;5.00;99.90;;;;;;6106874;23;20001;-86
2022/03/21 00:25:37;;;;;;;31.63;13.30;;;5.00;99.90;;;;;;6144045;23;20009;-86
2022/03/21 00:28:04;;;;;;;34.47;12.75;;;5.00;99.90;;;;;;6186268;23;20005;-85
2022/03/21 00:30:36;;;;;;;28.35;12.32;;;4.90;99.90;;;;;;6186012;23;20019;-85
2022/03/21 00:33:04;;;;;;;26.10;12.65;;;4.90;99.90;;;;;;6186364;23;20009;-86
2022/03/21 00:35:31;;;;;;;31.40;12.90;;;4.90;99.90;;;;;;6186018;23;20005;-86
2022/03/21 00:38:00;;;;;;;33.20;12.35;;;4.90;99.90;;;;;;6186182;23;20045;-86
2022/03/21 00:40:31;;;;;;;34.20;13.23;;;4.80;99.90;;;;;;6161304;23;20009;-86
2022/03/21 00:42:59;;;;;;;34.80;13.75;;;4.70;99.90;;;;;;6161066;23;20020;-86
2022/03/21 00:45:26;;;;;;;32.38;14.48;;;4.60;99.90;;;;;;6186104;23;20037;-86
2022/03/21 00:47:57;;;;;;;32.22;13.40;;;4.50;99.90;;;;;;6186198;23;20009;-85
2022/03/21 00:50:25;;;;;;;33.95;13.32;;;4.40;99.90;;;;;;6185844;23;20040;-86
2022/03/21 00:52:56;;;;;;;30.77;12.32;;;4.40;99.90;;;;;;6186008;23;20001;-86
2022/03/21 00:55:26;;;;;;;29.67;13.05;;;4.40;99.90;;;;;;6186098;23;20067;-86
2022/03/21 00:57:53;;;;;;;32.08;13.90;;;4.30;99.90;;;;;;6185901;23;20040;-86
2022/03/21 01:00:24;;;;;;;30.58;13.55;;;4.30;99.90;;;;;;6161119;23;20015;-86
2022/03/21 01:02:52;;;;;;;29.25;12.80;;;4.30;99.90;;;;;;6185563;23;20420;-86
2022/03/21 01:05:20;;;;;;;32.17;12.80;;;4.20;99.90;;;;;;6185767;23;20023;-85
2022/03/21 01:07:50;;;;;;;29.23;12.73;;;4.30;99.90;;;;;;6185971;23;20005;-86
2022/03/21 01:10:20;;;;;;;30.33;13.20;;;4.30;99.90;;;;;;6185536;23;20017;-87
2022/03/21 01:12:50;;;;;;;32.38;12.93;;;4.20;99.90;;;;;;6185788;23;20016;-86
2022/03/21 01:15:19;;;;;;;28.48;12.50;;;4.30;99.90;;;;;;6185793;23;20012;-86
2022/03/21 01:17:50;;;;;;;32.67;13.00;;;4.30;99.90;;;;;;6185809;23;20012;-85
2022/03/21 01:20:19;;;;;;;33.75;13.70;;;4.20;99.90;;;;;;6185737;23;20005;-86
2022/03/21 01:22:47;;;;;;;35.72;13.35;;;4.10;99.90;;;;;;6185754;23;20324;-85
2022/03/21 01:25:14;;;;;;;34.50;15.15;;;4.00;99.90;;;;;;6185929;23;20500;-86
2022/03/21 01:27:42;;;;;;;32.78;13.50;;;4.00;99.90;;;;;;6160796;23;19997;-86
2022/03/21 01:30:11;;;;;;;34.72;13.70;;;3.90;99.90;;;;;;6185537;23;20020;-86
2022/03/21 01:32:38;;;;;;;35.50;13.23;;;3.90;99.90;;;;;;6185562;23;20009;-86
2022/03/21 01:35:06;;;;;;;29.80;14.27;;;3.90;99.90;;;;;;6185642;23;20017;-86
2022/03/21 01:37:32;;;;;;;34.47;14.15;;;3.90;99.90;;;;;;6185707;23;20372;-86
2022/03/21 01:39:59;;;;;;;34.38;13.35;;;3.90;99.90;;;;;;6160775;23;20015;-86
2022/03/21 01:42:25;;;;;;;31.65;13.02;;;3.80;99.90;;;;;;6185756;23;20028;-86
2022/03/21 01:44:53;;;;;;;31.83;13.43;;;3.80;99.90;;;;;;6161051;23;20309;-86
2022/03/21 01:47:20;;;;;;;33.63;13.30;;;3.80;99.90;;;;;;6136188;23;20055;-86
2022/03/21 01:49:46;;;;;;;37.80;13.02;;;3.80;99.90;;;;;;6185379;23;20013;-86
2022/03/21 01:52:13;;;;;;;33.10;13.90;;;3.80;99.90;;;;;;6160728;23;20005;-86
2022/03/21 01:57:31;;;;;;;38.65;15.07;;;3.60;99.90;;;;;;6185507;23;20338;-86
2022/03/21 01:59:57;;;;;;;35.00;14.85;;;3.50;99.90;;;;;;6185304;23;20012;-85
2022/03/21 02:02:24;;;;;;;35.60;14.38;;;3.60;99.90;;;;;;6185698;23;20009;-85
2022/03/21 02:04:54;;;;;;;29.65;13.77;;;3.50;99.90;;;;;;6185151;23;20029;-85
2022/03/21 02:07:21;;;;;;;38.88;15.20;;;3.50;99.90;;;;;;6185197;23;20044;-86
2022/03/21 02:09:48;;;;;;;36.15;14.18;;;3.50;99.90;;;;;;6185329;23;20335;-85
2022/03/21 02:12:18;;;;;;;34.80;14.52;;;3.50;99.90;;;;;;6160640;23;20013;-87
2022/03/21 02:14:45;;;;;;;45.03;15.25;;;3.50;99.90;;;;;;6188772;23;20080;-86
2022/03/21 02:17:16;;;;;;;34.47;14.15;;;3.50;99.90;;;;;;6159929;23;20036;-85
2022/03/21 02:19:45;;;;;;;36.75;14.43;;;3.40;99.90;;;;;;6163771;23;20029;-86
2022/03/21 02:22:33;;;;;;;30.73;12.57;;;3.40;99.90;;;;;;6188740;23;20005;-86
2022/03/21 02:25:32;;;;;;;36.85;14.73;;;3.40;99.90;;;;;;6188727;23;20083;-86
2022/03/21 02:28:03;;;;;;;30.83;12.38;;;3.40;99.90;;;;;;6139173;23;20016;-85
2022/03/21 02:30:33;;;;;;;35.42;14.43;;;3.40;99.90;;;;;;6188566;23;20016;-86
2022/03/21 02:33:02;;;;;;;31.45;14.07;;;3.40;99.90;;;;;;6163646;23;20005;-86
2022/03/21 02:35:41;;;;;;;35.40;14.52;;;3.40;99.90;;;;;;6180014;23;20012;-86
2022/03/21 02:38:09;;;;;;;29.65;13.18;;;3.40;99.90;;;;;;6163585;23;20009;-85
2022/03/21 02:40:35;;;;;;;30.88;12.57;;;3.40;99.90;;;;;;6163759;23;20001;-86
2022/03/21 02:43:02;;;;;;;36.28;14.00;;;3.30;99.90;;;;;;6164036;23;20008;-86
2022/03/21 02:45:34;;;;;;;31.05;12.63;;;3.30;99.90;;;;;;6163807;23;20012;-85
2022/03/21 02:48:00;;;;;;;36.65;13.52;;;3.30;99.90;;;;;;6163779;23;20095;-85
2022/03/21 02:51:07;;;;;;;32.60;12.82;;;3.30;99.90;;;;;;6163696;23;20013;-86
2022/03/21 02:53:38;;;;;;;37.85;13.60;;;3.30;99.90;;;;;;6135452;23;20013;-86
2022/03/21 02:56:05;;;;;;;34.08;13.00;;;3.40;99.90;;;;;;6163740;23;20016;-85
2022/03/21 02:58:32;;;;;;;32.08;12.75;;;3.40;99.90;;;;;;6188177;23;20032;-85
2022/03/21 03:01:10;;;;;;;35.50;13.75;;;3.40;99.90;;;;;;6188689;23;20036;-86
2022/03/21 03:03:37;;;;;;;30.50;13.30;;;3.40;99.90;;;;;;6163930;23;20017;-86
2022/03/21 03:06:04;;;;;;;28.70;12.75;;;3.40;99.90;;;;;;6158706;23;20024;-86
2022/03/21 03:08:32;;;;;;;32.53;12.95;;;3.40;99.90;;;;;;6158864;23;20091;-86
2022/03/21 03:10:59;;;;;;;30.42;12.60;;;3.30;99.90;;;;;;6133949;23;20022;-86
2022/03/21 03:13:26;;;;;;;33.42;13.23;;;3.30;99.90;;;;;;6158758;23;20012;-85
2022/03/21 03:15:53;;;;;;;37.33;13.20;;;3.30;99.90;;;;;;6173457;23;20057;-85
2022/03/21 03:18:19;;;;;;;34.65;12.55;;;3.20;99.90;;;;;;6183421;23;20009;-86
2022/03/21 03:20:49;;;;;;;33.80;12.95;;;3.30;99.90;;;;;;6183550;23;20005;-86
2022/03/21 03:23:18;;;;;;;29.55;11.80;;;3.20;99.90;;;;;;6183639;23;20434;-85
2022/03/21 03:25:46;;;;;;;31.58;12.23;;;3.20;99.90;;;;;;6156718;23;20020;-86
2022/03/21 03:28:13;;;;;;;29.05;12.80;;;3.20;99.90;;;;;;6157108;23;20002;-86
2022/03/21 03:30:41;;;;;;;33.13;12.57;;;3.20;99.90;;;;;;6156735;23;20017;-85
2022/03/21 03:33:09;;;;;;;26.85;11.77;;;3.20;99.90;;;;;;6181877;23;20016;-85
2022/03/21 03:35:36;;;;;;;26.40;12.27;;;3.10;99.90;;;;;;6157062;23;20005;-85
2022/03/21 03:38:03;;;;;;;36.00;13.27;;;3.00;99.90;;;;;;6173830;23;20029;-85
2022/03/21 03:40:33;;;;;;;30.83;12.68;;;2.80;99.90;;;;;;6181990;23;20061;-85
2022/03/21 03:42:59;;;;;;;39.00;14.10;;;2.80;99.90;;;;;;6156863;23;20029;-84
2022/03/21 03:45:26;;;;;;;37.55;13.35;;;2.70;99.90;;;;;;6156930;23;20427;-85
2022/03/21 03:47:53;;;;;;;32.83;12.77;;;2.70;99.90;;;;;;6171802;23;20317;-85
2022/03/21 03:50:20;;;;;;;36.15;15.70;;;2.70;99.90;;;;;;6156802;23;20355;-85
2022/03/21 03:52:47;;;;;;;33.60;13.98;;;2.70;99.90;;;;;;6170537;23;20016;-85
2022/03/21 03:55:15;;;;;;;34.03;13.90;;;2.70;99.90;;;;;;6156906;23;20020;-85
2022/03/21 03:57:42;;;;;;;31.45;13.40;;;2.60;99.90;;;;;;6144757;23;20002;-85
2022/03/21 04:00:09;;;;;;;36.15;14.00;;;2.60;99.90;;;;;;6181908;23;20029;-85
2022/03/21 04:05:28;;;;;;;33.95;13.35;;;2.50;99.90;;;;;;6181279;23;20463;-85
2022/03/21 04:07:55;;;;;;;28.25;12.52;;;2.40;99.90;;;;;;6156891;23;20351;-84
2022/03/21 04:10:22;;;;;;;42.28;14.90;;;2.40;99.90;;;;;;6156614;23;20024;-85
2022/03/21 04:12:50;;;;;;;34.75;14.25;;;2.40;99.90;;;;;;6151302;23;20006;-84
2022/03/21 04:15:18;;;;;;;34.17;13.75;;;2.40;99.90;;;;;;6126554;23;20045;-85
2022/03/21 04:17:45;;;;;;;36.42;13.65;;;2.40;99.90;;;;;;6126406;23;20030;-85
2022/03/21 04:20:13;;;;;;;44.55;14.30;;;2.40;99.90;;;;;;6126221;23;20069;-86
2022/03/21 04:22:40;;;;;;;32.50;13.07;;;2.50;99.90;;;;;;6126637;23;20064;-85
2022/03/21 04:25:10;;;;;;;37.80;13.75;;;2.40;99.90;;;;;;6126541;23;20089;-85
2022/03/21 04:27:38;;;;;;;34.92;14.55;;;2.50;99.90;;;;;;6126239;23;20096;-86
2022/03/21 04:30:07;;;;;;;41.20;14.43;;;2.50;99.90;;;;;;6126050;23;20005;-86
2022/03/21 04:32:35;;;;;;;30.20;13.13;;;2.60;99.90;;;;;;6126109;23;20060;-88
2022/03/21 04:35:03;;;;;;;39.10;14.75;;;2.60;99.90;;;;;;6126143;23;20440;-88
2022/03/21 04:37:30;;;;;;;30.30;12.70;;;2.60;99.90;;;;;;6095361;23;20056;-87
2022/03/21 04:39:59;;;;;;;33.20;13.43;;;2.60;99.90;;;;;;6126254;23;20017;-86
2022/03/21 04:42:25;;;;;;;37.03;13.52;;;2.60;99.90;;;;;;6126093;23;20512;-85
2022/03/21 04:44:52;;;;;;;33.85;14.48;;;2.50;99.90;;;;;;6126315;23;20248;-84
2022/03/21 04:47:21;;;;;;;30.40;12.63;;;2.50;99.90;;;;;;6125690;23;20388;-87
2022/03/21 04:49:49;;;;;;;34.40;13.38;;;2.50;99.90;;;;;;6135954;23;20009;-89
2022/03/21 04:52:16;;;;;;;39.58;14.70;;;2.40;99.90;;;;;;6156599;23;20061;-88
2022/03/21 04:54:43;;;;;;;37.58;15.05;;;2.40;99.90;;;;;;6168958;23;20005;-84
2022/03/21 04:57:11;;;;;;;35.35;14.38;;;2.40;99.90;;;;;;6156347;23;20080;-84
2022/03/21 04:59:37;;;;;;;38.10;14.13;;;2.40;99.90;;;;;;6155478;23;20012;-88
2022/03/21 05:02:05;;;;;;;36.20;14.52;;;2.40;99.90;;;;;;6180876;23;20013;-87
2022/03/21 05:04:32;;;;;;;41.85;14.95;;;2.40;99.90;;;;;;6155963;23;20041;-88
2022/03/21 05:06:59;;;;;;;32.28;12.73;;;2.40;99.90;;;;;;6147338;23;20019;-87
2022/03/21 05:09:25;;;;;;;31.92;13.82;;;2.40;99.90;;;;;;6156343;23;20013;-88
2022/03/21 05:11:52;;;;;;;37.72;13.02;;;2.40;99.90;;;;;;6156134;23;20017;-86
2022/03/21 05:14:19;;;;;;;27.45;12.27;;;2.40;99.90;;;;;;6151278;23;20005;-85
2022/03/21 05:16:49;;;;;;;39.83;14.80;;;2.50;99.90;;;;;;6156237;23;20084;-88
2022/03/21 05:19:22;;;;;;;36.38;14.73;;;2.50;99.90;;;;;;6156114;23;20097;-87
2022/03/21 05:21:48;;;;;;;29.67;13.23;;;2.50;99.90;;;;;;6180728;23;20068;-84
2022/03/21 05:32:45;;;;;;;35.55;15.27;;;2.70;99.90;;;;;;6180684;23;20049;-86
2022/03/21 05:37:57;;;;;;;31.92;12.30;;;3.00;99.90;;;;;;6171788;23;20009;-84
2022/03/21 05:40:35;;;;;;;34.13;13.85;;;3.00;99.90;;;;;;6131388;23;20009;-85
2022/03/21 05:43:03;;;;;;;32.28;12.45;;;3.10;99.90;;;;;;6155731;23;20021;-84
2022/03/21 05:45:29;;;;;;;27.02;12.57;;;3.20;99.90;;;;;;6178054;23;20018;-85
2022/03/21 05:50:40;;;;;;;32.88;12.15;;;3.30;99.90;;;;;;6180443;23;20051;-84
2022/03/21 05:53:16;;;;;;;31.13;13.40;;;3.40;99.90;;;;;;6155645;23;20009;-84
2022/03/21 05:55:45;;;;;;;34.83;12.73;;;3.60;99.90;;;;;;6155840;23;20060;-85
2022/03/21 05:58:15;;;;;;;33.55;13.70;;;3.60;99.90;;;;;;6155802;23;20006;-86
2022/03/21 06:00:42;;;;;;;34.53;13.30;;;3.60;99.90;;;;;;6155917;23;20088;-85
2022/03/21 06:03:09;;;;;;;35.28;13.52;;;3.70;99.90;;;;;;6180562;23;20009;-85
2022/03/21 06:05:36;;;;;;;33.85;13.20;;;3.80;99.90;;;;;;6173590;23;20432;-87
2022/03/21 06:08:06;;;;;;;34.65;13.40;;;3.90;99.90;;;;;;6185474;23;20015;-87
2022/03/21 06:10:36;;;;;;;26.75;13.25;;;4.00;99.90;;;;;;6184793;23;20024;-87
2022/03/21 06:13:05;;;;;;;34.50;14.30;;;4.20;99.90;;;;;;6185306;23;20009;-85
2022/03/21 06:15:33;;;;;;;39.20;16.88;;;4.20;99.90;;;;;;6160661;23;20005;-88
2022/03/21 06:18:09;;;;;;;38.30;16.17;;;4.50;99.90;;;;;;6185240;23;20009;-85
2022/03/21 06:20:39;;;;;;;39.97;14.93;;;4.60;99.90;;;;;;6185791;23;20459;-87
2022/03/21 06:23:08;;;;;;;29.17;13.48;;;4.80;99.90;;;;;;6184780;23;20009;-87
2022/03/21 06:25:37;;;;;;;31.27;12.18;;;4.90;99.90;;;;;;6185437;23;20009;-87
2022/03/21 06:28:04;;;;;;;30.85;13.82;;;5.10;99.90;;;;;;6185363;23;20001;-86
2022/03/21 06:30:30;;;;;;;25.17;11.32;;;5.20;99.90;;;;;;6160677;23;20020;-87
2022/03/21 06:32:57;;;;;;;25.23;12.18;;;5.40;99.90;;;;;;6186123;23;20001;-87
2022/03/21 06:35:23;;;;;;;31.02;11.75;;;5.60;99.90;;;;;;6160311;23;20025;-88
2022/03/21 06:37:51;;;;;;;26.00;11.35;;;5.70;99.90;;;;;;6184902;23;20008;-88
2022/03/21 06:40:17;;;;;;;30.50;12.95;;;5.90;99.90;;;;;;6160251;23;20001;-87
2022/03/21 06:42:44;;;;;;;27.02;11.32;;;6.10;99.90;;;;;;6185157;23;20013;-87
2022/03/21 06:45:11;;;;;;;25.27;11.57;;;6.20;99.90;;;;;;6185362;23;20005;-88
2022/03/21 06:47:37;;;;;;;26.55;11.00;;;6.30;99.90;;;;;;6185293;23;20100;-87
2022/03/21 06:50:07;;;;;;;27.92;11.65;;;6.40;99.90;;;;;;6160372;23;20009;-88
2022/03/21 06:52:38;;;;;;;26.48;10.10;;;6.50;99.90;;;;;;6184751;23;20435;-88
2022/03/21 06:55:10;;;;;;;16.98;9.13;;;6.60;99.90;;;;;;6160265;23;20006;-87
2022/03/21 06:57:37;;;;;;;18.88;9.52;;;6.80;99.90;;;;;;6160084;23;20021;-87
2022/03/21 07:00:05;;;;;;;23.38;10.43;;;7.00;99.90;;;;;;6160749;23;20013;-87
2022/03/21 07:02:33;;;;;;;22.33;10.02;;;7.20;99.90;;;;;;6187035;23;20078;-87
2022/03/21 07:05:00;;;;;;;20.73;9.25;;;7.30;99.90;;;;;;6161676;23;20036;-85
2022/03/21 07:07:27;;;;;;;18.35;7.78;;;7.50;99.90;;;;;;6162162;23;20036;-86
2022/03/21 07:09:54;;;;;;;13.38;7.05;;;7.50;99.90;;;;;;6161967;23;20096;-86
2022/03/21 07:12:20;;;;;;;8.90;4.05;;;7.70;99.90;;;;;;6162109;23;20024;-85
2022/03/21 07:14:48;;;;;;;6.70;4.03;;;7.90;99.90;;;;;;6162214;23;20490;-86
2022/03/21 07:17:24;;;;;;;12.13;5.22;;;8.10;99.90;;;;;;6162219;23;20036;-86
2022/03/21 07:19:50;;;;;;;11.63;5.07;;;8.20;99.90;;;;;;6162080;23;20001;-86
2022/03/21 07:22:17;;;;;;;12.75;4.75;;;8.30;99.90;;;;;;6162210;23;20008;-85
2022/03/21 07:24:46;;;;;;;14.18;5.50;;;8.50;99.90;;;;;;6161988;23;20005;-86
2022/03/21 07:27:13;;;;;;;5.53;4.05;;;8.80;99.90;;;;;;6162232;23;20087;-86
2022/03/21 07:29:39;;;;;;;7.80;4.13;;;9.00;99.90;;;;;;6162000;23;20001;-87
2022/03/21 07:32:07;;;;;;;13.00;4.45;;;9.30;99.90;;;;;;6162028;23;20020;-86
2022/03/21 07:34:34;;;;;;;5.75;3.67;;;9.30;99.90;;;;;;6161918;23;20009;-85
2022/03/21 07:37:00;;;;;;;8.73;3.55;;;9.30;99.90;;;;;;6161914;23;20009;-86
2022/03/21 07:39:29;;;;;;;9.75;2.78;;;9.40;99.90;;;;;;6161776;23;20005;-86
2022/03/21 07:42:00;;;;;;;5.40;3.17;;;9.60;99.90;;;;;;6161805;23;20005;-86
2022/03/21 07:47:23;;;;;;;4.30;2.58;;;10.00;99.90;;;;;;6187015;23;20047;-86
2022/03/21 07:49:51;;;;;;;7.78;2.70;;;10.30;99.90;;;;;;6161637;23;20077;-86
2022/03/21 07:52:20;;;;;;;7.82;2.60;;;10.30;99.90;;;;;;6161698;23;20453;-86
2022/03/21 07:54:53;;;;;;;3.70;2.22;;;10.40;99.90;;;;;;6161537;23;20012;-85
2022/03/21 07:57:22;;;;;;;3.88;2.22;;;10.50;99.90;;;;;;6161880;23;20016;-86
2022/03/21 07:59:49;;;;;;;5.65;2.30;;;10.50;99.90;;;;;;6161688;23;20002;-87
2022/03/21 08:02:19;;;;;;;4.55;2.13;;;10.50;99.90;;;;;;6161685;23;20092;-86
2022/03/21 08:04:47;;;;;;;2.95;2.05;;;10.70;99.90;;;;;;6159639;23;20428;-85
2022/03/21 08:07:17;;;;;;;5.57;2.22;;;10.70;99.90;;;;;;6161620;23;20013;-87
2022/03/21 08:09:46;;;;;;;4.95;1.73;;;10.60;99.90;;;;;;6161359;23;20055;-84
2022/03/21 08:12:13;;;;;;;3.35;1.70;;;10.80;99.90;;;;;;6161183;23;20347;-83
2022/03/21 08:14:43;;;;;;;4.78;2.45;;;11.00;99.90;;;;;;6161599;23;20029;-87
2022/03/21 08:17:10;;;;;;;5.85;2.00;;;11.30;99.90;;;;;;6186218;23;20096;-87
2022/03/21 08:19:36;;;;;;;3.88;1.90;;;11.50;99.90;;;;;;6161691;23;20475;-86
2022/03/21 08:22:07;;;;;;;6.00;2.03;;;11.80;99.90;;;;;;6186426;23;20016;-86
2022/03/21 08:24:36;;;;;;;5.35;2.55;;;12.00;99.90;;;;;;6161384;23;20016;-87
2022/03/21 08:27:07;;;;;;;5.30;2.78;;;12.30;99.90;;;;;;6161223;23;20499;-82
2022/03/21 08:29:34;;;;;;;2.15;1.40;;;12.60;99.90;;;;;;6160600;23;20021;-84
2022/03/21 08:32:05;;;;;;;7.85;1.90;;;13.10;99.90;;;;;;6160538;23;20016;-83
2022/03/21 08:34:32;;;;;;;5.07;2.00;;;13.30;99.90;;;;;;6161027;23;20005;-83
2022/03/21 08:36:58;;;;;;;5.07;2.05;;;13.70;99.90;;;;;;6160711;23;20016;-83
2022/03/21 08:39:25;;;;;;;4.78;1.80;;;13.80;99.90;;;;;;6161067;23;20029;-86
2022/03/21 08:41:52;;;;;;;6.75;2.85;;;13.30;99.90;;;;;;6161148;23;20009;-85
2022/03/21 08:44:20;;;;;;;5.35;3.17;;;12.90;99.90;;;;;;6161220;23;20032;-87
2022/03/21 08:46:51;;;;;;;3.92;2.28;;;12.90;99.90;;;;;;6161359;23;20001;-87
2022/03/21 08:49:33;;;;;;;6.70;2.47;;;13.10;99.90;;;;;;6161322;23;20009;-87
2022/03/21 08:52:01;;;;;;;6.45;2.50;;;12.70;99.90;;;;;;6161158;23;20024;-87
2022/03/21 08:54:29;;;;;;;3.25;2.35;;;12.30;99.90;;;;;;6161186;23;20001;-86
2022/03/21 08:56:56;;;;;;;4.57;1.73;;;12.00;99.90;;;;;;6161349;23;20020;-86
2022/03/21 08:59:23;;;;;;;5.82;1.90;;;11.70;99.90;;;;;;6161044;23;20009;-86
2022/03/21 09:01:49;;;;;;;5.78;1.75;;;11.60;99.90;;;;;;6160878;23;20012;-87
2022/03/21 09:04:17;;;;;;;4.00;1.92;;;11.50;99.90;;;;;;6161193;23;20009;-87
2022/03/21 09:06:43;;;;;;;4.05;2.00;;;11.50;99.90;;;;;;6160754;23;20020;-86
2022/03/21 09:09:10;;;;;;;4.00;1.63;;;11.40;99.90;;;;;;6161031;23;20462;-87
2022/03/21 09:11:40;;;;;;;6.18;1.92;;;11.30;99.90;;;;;;6160946;23;20020;-86
2022/03/21 09:14:08;;;;;;;4.80;2.83;;;11.20;99.90;;;;;;6161069;23;20032;-87
2022/03/21 09:16:42;;;;;;;7.10;2.85;;;11.20;99.90;;;;;;6185863;23;20037;-87
2022/03/21 09:19:10;;;;;;;3.67;1.63;;;11.10;99.90;;;;;;6161163;23;20359;-87
2022/03/21 09:21:46;;;;;;;6.95;2.38;;;11.20;99.90;;;;;;6161062;23;20012;-87
2022/03/21 09:24:13;;;;;;;6.18;2.60;;;11.20;99.90;;;;;;6185317;23;20013;-82
2022/03/21 09:26:40;;;;;;;4.13;2.13;;;11.10;99.90;;;;;;6160399;23;20059;-82
2022/03/21 09:29:07;;;;;;;5.47;2.38;;;11.10;99.90;;;;;;6160275;23;20012;-82
2022/03/21 09:31:41;;;;;;;7.18;1.98;;;11.10;99.90;;;;;;6160164;23;20013;-82
2022/03/21 09:34:13;;;;;;;3.60;1.67;;;11.20;99.90;;;;;;6186561;23;20005;-82
2022/03/21 09:36:40;;;;;;;2.83;1.88;;;11.20;99.90;;;;;;6160311;23;20451;-83
2022/03/21 09:39:17;;;;;;;9.85;2.83;;;11.20;99.90;;;;;;6160570;23;20001;-82
2022/03/21 09:41:47;;;;;;;6.38;2.13;;;11.30;99.90;;;;;;6186506;23;20080;-82
2022/03/21 09:44:14;;;;;;;6.88;2.45;;;11.30;99.90;;;;;;6160201;23;20008;-82
2022/03/21 09:46:44;;;;;;;5.07;1.77;;;11.30;99.90;;;;;;6160266;23;20020;-83
2022/03/21 09:49:16;;;;;;;3.10;1.98;;;11.30;99.90;;;;;;6160825;23;20025;-81
2022/03/21 09:51:45;;;;;;;4.78;2.00;;;11.30;99.90;;;;;;6159854;23;20048;-82
2022/03/21 09:54:13;;;;;;;3.97;2.53;;;11.30;99.90;;;;;;6160062;23;20008;-82
2022/03/21 09:56:40;;;;;;;3.25;1.83;;;11.20;99.90;;;;;;6160106;23;20099;-82
2022/03/21 09:59:08;;;;;;;4.47;2.15;;;11.30;99.90;;;;;;6160380;23;20012;-82
2022/03/21 10:01:43;;;;;;;4.95;2.13;;;11.30;99.90;;;;;;6184985;23;20131;-82
2022/03/21 10:04:10;;;;;;;4.80;2.33;;;11.30;99.90;;;;;;6186914;23;20005;-82
2022/03/21 10:06:43;;;;;;;4.18;2.17;;;11.30;99.90;;;;;;6159570;23;20031;-82
2022/03/21 10:09:19;;;;;;;4.65;2.28;;;11.20;99.90;;;;;;6160215;23;20006;-83
2022/03/21 10:11:56;;;;;;;7.07;2.53;;;11.30;99.90;;;;;;6160035;23;20017;-82
2022/03/21 10:14:25;;;;;;;9.02;2.03;;;11.30;99.90;;;;;;6160089;23;20012;-82
2022/03/21 10:17:09;;;;;;;2.58;1.85;;;11.20;99.90;;;;;;6160127;23;20009;-82
2022/03/21 10:20:03;;;;;;;3.78;2.00;;;11.10;99.90;;;;;;6160245;23;20114;-82
2022/03/21 10:22:52;;;;;;;5.90;2.35;;;11.20;99.90;;;;;;6160180;23;20012;-83
2022/03/21 10:25:21;;;;;;;3.03;1.65;;;11.20;99.90;;;;;;6042732;23;20006;-82
2022/03/21 10:27:56;;;;;;;3.33;1.88;;;11.20;99.90;;;;;;6066979;23;20014;-82
2022/03/21 10:30:24;;;;;;;3.85;1.90;;;11.20;99.90;;;;;;6066753;23;20059;-82
2022/03/21 10:33:00;;;;;;;5.43;2.30;;;11.10;99.90;;;;;;6066540;23;20015;-82
2022/03/21 10:35:46;;;;;;;5.15;2.15;;;11.10;99.90;;;;;;6068424;23;20014;-83
2022/03/21 10:38:28;;;;;;;4.30;2.03;;;11.10;99.90;;;;;;6068756;23;20070;-82
2022/03/21 10:40:55;;;;;;;5.88;2.50;;;11.10;99.90;;;;;;6068366;23;20007;-82
2022/03/21 10:43:21;;;;;;;4.28;1.60;;;11.20;99.90;;;;;;6068493;23;20015;-82
2022/03/21 10:45:51;;;;;;;3.55;1.70;;;11.10;99.90;;;;;;6068028;23;20010;-82
2022/03/21 10:48:23;;;;;;;2.85;1.90;;;11.10;99.90;;;;;;6068525;23;20445;-85
2022/03/21 10:50:53;;;;;;;5.28;2.00;;;11.20;99.90;;;;;;6068869;23;20019;-84
2022/03/21 10:53:49;;;;;;;6.60;2.58;;;11.20;99.90;;;;;;6068965;23;20031;-83
2022/03/21 10:56:16;;;;;;;3.78;2.50;;;11.10;99.90;;;;;;6051131;23;20010;-83
2022/03/21 10:58:47;;;;;;;3.05;1.95;;;11.10;99.90;;;;;;6068843;23;20007;-83
2022/03/21 11:01:27;;;;;;;3.95;2.35;;;11.20;99.90;;;;;;6077717;23;20021;-84
2022/03/21 11:04:02;;;;;;;7.20;2.78;;;11.10;99.90;;;;;;6162380;23;20005;-84
2022/03/21 11:06:29;;;;;;;6.85;2.65;;;11.20;99.90;;;;;;6162011;23;20383;-84
2022/03/21 11:08:57;;;;;;;6.38;2.53;;;11.20;99.90;;;;;;6161975;23;20001;-83
2022/03/21 11:11:24;;;;;;;6.65;2.42;;;11.30;99.90;;;;;;6161930;23;20382;-83
2022/03/21 11:13:55;;;;;;;3.08;2.03;;;11.20;99.90;;;;;;6161670;23;20009;-83
2022/03/21 11:16:23;;;;;;;4.00;2.10;;;11.30;99.90;;;;;;6161950;23;20020;-84
2022/03/21 11:21:36;;;;;;;4.18;2.28;;;11.10;99.90;;;;;;6186670;23;20040;-84
2022/03/21 11:24:03;;;;;;;7.25;1.92;;;11.20;99.90;;;;;;6161767;23;20008;-83
2022/03/21 11:26:51;;;;;;;4.85;2.05;;;11.10;99.90;;;;;;6161857;23;20011;-82
2022/03/21 11:29:55;;;;;;;5.30;2.25;;;11.10;99.90;;;;;;6161967;23;20036;-83
2022/03/21 11:32:47;;;;;;;12.10;2.13;;;11.20;99.90;;;;;;6161918;23;20531;-83
2022/03/21 11:35:25;;;;;;;6.13;2.17;;;11.20;99.90;;;;;;6161784;23;20009;-83
2022/03/21 11:38:15;;;;;;;8.00;2.40;;;11.00;99.90;;;;;;6161567;23;20005;-84
2022/03/21 11:40:42;;;;;;;10.00;2.85;;;11.10;99.90;;;;;;6161217;23;20070;-83
2022/03/21 11:43:18;;;;;;;6.22;2.67;;;11.10;99.90;;;;;;6161606;23;20033;-83
2022/03/21 11:45:55;;;;;;;7.18;2.35;;;11.10;99.90;;;;;;6161146;23;20427;-83
2022/03/21 11:48:24;;;;;;;9.05;3.25;;;11.10;99.90;;;;;;6161493;23;20424;-84
2022/03/21 11:51:17;;;;;;;4.18;2.35;;;11.10;99.90;;;;;;6161627;23;20025;-84
2022/03/21 11:53:49;;;;;;;8.48;2.80;;;11.20;99.90;;;;;;6186486;23;20009;-82
2022/03/21 11:56:48;;;;;;;22.92;2.88;;;11.10;99.90;;;;;;6161207;23;20017;-82
2022/03/21 11:59:47;;;;;;;4.40;2.10;;;11.00;99.90;;;;;;6160967;23;20047;-82
2022/03/21 12:02:15;;;;;;;3.78;2.13;;;11.10;99.90;;;;;;6185301;23;20047;-92
2022/03/21 12:04:42;;;;;;;6.00;1.98;;;11.10;99.90;;;;;;6176374;23;20489;-92
2022/03/21 12:07:12;;;;;;;7.80;2.72;;;11.10;99.90;;;;;;6168400;23;20036;-94
2022/03/21 12:09:50;;;;;;;5.85;2.65;;;11.20;99.90;;;;;;6167104;23;20009;-91
2022/03/21 12:12:22;;;;;;;4.60;2.92;;;11.20;99.90;;;;;;6169422;23;20017;-91
2022/03/21 12:14:54;;;;;;;6.47;2.20;;;11.20;99.90;;;;;;6166977;23;20067;-91
2022/03/21 12:17:25;;;;;;;6.90;2.33;;;11.20;99.90;;;;;;6166864;23;20088;-92
2022/03/21 12:19:52;;;;;;;6.68;2.13;;;11.00;99.90;;;;;;6167076;23;20008;-92
2022/03/21 12:22:33;;;;;;;5.13;2.40;;;10.90;99.90;;;;;;6166965;23;20009;-92
2022/03/21 12:25:33;;;;;;;4.55;2.13;;;11.00;99.90;;;;;;6167119;23;20008;-93
2022/03/21 12:28:22;;;;;;;9.30;2.78;;;11.00;99.90;;;;;;6192524;23;20011;-94
2022/03/21 12:30:48;;;;;;;3.25;2.10;;;10.90;99.90;;;;;;6166457;23;20024;-93
2022/03/21 12:33:15;;;;;;;4.38;2.40;;;10.80;99.90;;;;;;6167231;23;20001;-92
2022/03/21 12:35:45;;;;;;;5.00;2.17;;;10.90;99.90;;;;;;6166619;23;20012;-94
2022/03/21 12:38:34;;;;;;;6.20;2.30;;;10.90;99.90;;;;;;6169941;23;20346;-93
2022/03/21 12:41:11;;;;;;;5.40;2.35;;;11.10;99.90;;;;;;6167239;23;20012;-91
2022/03/21 12:43:40;;;;;;;6.60;1.90;;;10.90;99.90;;;;;;6167832;23;20005;-93
2022/03/21 12:46:07;;;;;;;14.30;2.10;;;11.00;99.90;;;;;;6172063;23;20095;-93
2022/03/21 12:48:39;;;;;;;8.20;1.90;;;10.90;99.90;;;;;;6193154;23;19989;-90
2022/03/21 12:51:06;;;;;;;6.10;2.40;;;10.90;99.90;;;;;;6177664;23;20020;-92
2022/03/21 12:53:40;;;;;;;3.58;1.83;;;10.80;99.90;;;;;;6167832;23;20011;-92
2022/03/21 12:56:08;;;;;;;6.43;2.25;;;10.80;99.90;;;;;;6167371;23;20012;-92
2022/03/21 12:58:38;;;;;;;3.28;2.00;;;10.80;99.90;;;;;;6167187;23;20009;-92
2022/03/21 13:01:06;;;;;;;4.20;2.10;;;10.80;99.90;;;;;;6178467;23;20000;-93
2022/03/21 13:03:32;;;;;;;6.00;2.20;;;10.80;99.90;;;;;;6192903;23;20019;-90
2022/03/21 13:11:54;;;;;;;5.70;2.15;;;10.70;99.90;;;;;;6191078;23;20027;-94
2022/03/21 13:14:21;;;;;;;6.57;2.03;;;10.60;99.90;;;;;;6166706;23;20427;-91
2022/03/21 13:16:57;;;;;;;5.20;2.35;;;10.50;99.90;;;;;;6166487;23;20454;-92
2022/03/21 13:19:27;;;;;;;7.97;2.65;;;10.60;99.90;;;;;;6166885;23;20366;-92
2022/03/21 13:22:11;;;;;;;5.50;3.03;;;10.60;99.90;;;;;;6166633;23;20006;-92
2022/03/21 13:24:39;;;;;;;4.65;2.28;;;10.50;99.90;;;;;;6166263;23;20450;-92
2022/03/21 13:27:06;;;;;;;6.07;2.85;;;10.40;99.90;;;;;;6166343;23;20005;-91